Time;durP1;ratioP1;P1;durP2;ratioP2;P2;SDS_P1;SDS_P2;PMS_P1;PMS_P2;Temp;Humidity;BMP_temperature;BMP_pressure;BME280_temperature;BME280_humidity;BME280_pressure;Samples;Min_cycle;Max_cycle;Signal;HPM_P1;HPM_P2
2023/03/15 00:00:48;;;;;;;;;;;5.20;99.90;;;;;;6211348;23;20307;-83
2023/03/15 00:03:14;;;;;;;;;;;4.60;99.90;;;;;;6210820;23;19904;-83
2023/03/15 00:05:47;;;;;;;;;;;5.30;99.90;;;;;;6184289;23;19966;-83
2023/03/15 00:08:13;;;;;;;;;;;5.20;99.90;;;;;;6211061;23;19900;-84
2023/03/15 00:10:43;;;;;;;;;;;5.10;99.90;;;;;;6184410;23;19900;-84
2023/03/15 00:13:08;;;;;;;;;;;5.10;99.90;;;;;;6210843;23;19962;-84
2023/03/15 00:15:34;;;;;;;;;;;5.10;99.90;;;;;;6211652;23;20384;-84
2023/03/15 00:18:02;;;;;;;;;;;5.10;99.90;;;;;;6210394;23;20283;-82
2023/03/15 00:20:28;;;;;;;;;;;5.10;99.90;;;;;;6210835;23;20251;-83
2023/03/15 00:22:53;;;;;;;;;;;5.10;99.90;;;;;;6210842;23;20343;-84
2023/03/15 00:25:19;;;;;;;;;;;5.10;99.90;;;;;;6210698;23;19900;-85
2023/03/15 00:27:44;;;;;;;;;;;5.10;99.90;;;;;;6210717;23;20009;-85
2023/03/15 00:30:10;;;;;;;;;;;5.10;99.90;;;;;;6210769;23;19907;-84
2023/03/15 00:32:35;;;;;;;;;;;5.00;99.90;;;;;;6211702;23;19900;-84
2023/03/15 00:35:01;;;;;;;;;;;5.00;99.90;;;;;;6184366;23;19915;-84
2023/03/15 00:37:26;;;;;;;;;;;5.00;99.90;;;;;;6210834;23;20403;-83
2023/03/15 00:39:54;;;;;;;;;;;5.00;99.90;;;;;;6210570;23;20331;-83
2023/03/15 00:42:20;;;;;;;;;;;4.70;99.90;;;;;;6210350;23;19900;-84
2023/03/15 00:44:45;;;;;;;;;;;5.00;99.90;;;;;;6211101;23;19904;-84
2023/03/15 00:47:11;;;;;;;;;;;5.00;99.90;;;;;;6210448;23;19907;-84
2023/03/15 00:49:37;;;;;;;;;;;4.90;99.90;;;;;;6211383;23;19900;-84
2023/03/15 00:52:03;;;;;;;;;;;4.90;99.90;;;;;;6211709;23;19974;-84
2023/03/15 00:54:32;;;;;;;;;;;4.90;99.90;;;;;;6210378;23;19935;-84
2023/03/15 00:56:58;;;;;;;;;;;4.80;99.90;;;;;;6209946;23;20314;-82
2023/03/15 00:59:23;;;;;;;;;;;5.70;99.90;;;;;;6184374;23;19900;-83
2023/03/15 01:01:49;;;;;;;;;;;4.80;99.90;;;;;;6210532;23;19931;-84
2023/03/15 01:04:15;;;;;;;;;;;4.80;99.90;;;;;;6210875;23;19962;-84
2023/03/15 01:06:41;;;;;;;;;;;4.70;99.90;;;;;;6210615;23;19900;-84
2023/03/15 01:09:07;;;;;;;;;;;4.80;99.90;;;;;;6211011;23;19911;-84
2023/03/15 01:11:32;;;;;;;;;;;4.50;99.90;;;;;;6184303;23;19900;-84
2023/03/15 01:13:58;;;;;;;;;;;4.70;99.90;;;;;;6210896;23;20212;-84
2023/03/15 01:16:24;;;;;;;;;;;4.70;99.90;;;;;;6210968;23;19900;-84
2023/03/15 01:18:50;;;;;;;;;;;4.70;99.90;;;;;;6210983;23;20340;-84
2023/03/15 01:21:16;;;;;;;;;;;4.60;99.90;;;;;;6212145;23;19904;-84
2023/03/15 01:23:42;;;;;;;;;;;4.50;99.90;;;;;;6211267;23;20329;-84
2023/03/15 01:26:09;;;;;;;;;;;4.60;99.90;;;;;;6212211;23;19987;-84
2023/03/15 01:28:35;;;;;;;;;;;4.50;99.90;;;;;;6211755;23;19911;-84
2023/03/15 01:31:00;;;;;;;;;;;4.40;99.90;;;;;;6210493;23;19900;-83
2023/03/15 01:33:26;;;;;;;;;;;4.50;99.90;;;;;;6209624;23;19908;-83
2023/03/15 01:36:03;;;;;;;;;;;4.50;99.90;;;;;;6210040;23;20003;-83
2023/03/15 01:38:28;;;;;;;;;;;4.50;99.90;;;;;;6209161;23;19983;-83
2023/03/15 01:40:54;;;;;;;;;;;4.50;99.90;;;;;;6210376;23;19935;-83
2023/03/15 01:43:20;;;;;;;;;;;4.50;99.90;;;;;;6210850;23;19906;-82
2023/03/15 01:45:49;;;;;;;;;;;4.50;99.90;;;;;;6210567;23;19903;-83
2023/03/15 01:48:15;;;;;;;;;;;4.50;99.90;;;;;;6210239;23;19911;-82
2023/03/15 01:50:41;;;;;;;;;;;4.50;99.90;;;;;;6210968;23;19900;-82
2023/03/15 01:53:06;;;;;;;;;;;4.50;99.90;;;;;;6211842;23;20352;-82
2023/03/15 01:55:32;;;;;;;;;;;4.10;99.90;;;;;;6210823;23;19942;-83
2023/03/15 01:57:59;;;;;;;;;;;4.60;99.90;;;;;;6211095;23;19906;-83
2023/03/15 02:00:24;;;;;;;;;;;4.70;99.90;;;;;;6210526;23;19907;-84
2023/03/15 02:02:50;;;;;;;;;;;4.70;99.90;;;;;;6209896;23;19900;-84
2023/03/15 02:05:20;;;;;;;;;;;4.60;99.90;;;;;;6209888;23;19981;-83
2023/03/15 02:07:48;;;;;;;;;;;4.70;99.90;;;;;;6210684;23;20279;-82
2023/03/15 02:10:17;;;;;;;;;;;4.70;99.90;;;;;;6210439;23;19954;-84
2023/03/15 02:12:45;;;;;;;;;;;4.90;99.90;;;;;;6210249;23;19983;-83
2023/03/15 02:15:11;;;;;;;;;;;4.60;99.90;;;;;;6211165;23;20003;-83
2023/03/15 02:17:38;;;;;;;;;;;4.60;99.90;;;;;;6210895;23;19945;-83
2023/03/15 02:20:11;;;;;;;;;;;5.30;99.90;;;;;;6211974;23;19911;-82
2023/03/15 02:22:46;;;;;;;;;;;4.60;99.90;;;;;;6211836;23;19935;-83
2023/03/15 02:25:20;;;;;;;;;;;4.50;99.90;;;;;;6212106;23;19906;-83
2023/03/15 02:27:45;;;;;;;;;;;4.50;99.90;;;;;;6211806;23;20240;-83
2023/03/15 02:30:11;;;;;;;;;;;4.50;99.90;;;;;;6213075;23;19900;-83
2023/03/15 02:32:36;;;;;;;;;;;4.50;99.90;;;;;;6211294;23;19904;-84
2023/03/15 02:35:02;;;;;;;;;;;4.50;99.90;;;;;;6211978;23;20355;-84
2023/03/15 02:37:28;;;;;;;;;;;4.60;99.90;;;;;;6212116;23;19900;-84
2023/03/15 02:39:53;;;;;;;;;;;4.50;99.90;;;;;;6211949;23;19904;-83
2023/03/15 02:42:19;;;;;;;;;;;4.50;99.90;;;;;;6211349;23;20353;-84
2023/03/15 02:44:45;;;;;;;;;;;4.50;99.90;;;;;;6211489;23;19906;-83
2023/03/15 02:47:17;;;;;;;;;;;5.20;99.90;;;;;;6186456;23;19926;-83
2023/03/15 02:49:45;;;;;;;;;;;4.50;99.90;;;;;;6213113;23;19900;-83
2023/03/15 02:52:12;;;;;;;;;;;4.50;99.90;;;;;;6212759;23;19907;-83
2023/03/15 02:54:42;;;;;;;;;;;4.50;99.90;;;;;;6211641;23;19908;-82
2023/03/15 02:57:08;;;;;;;;;;;4.40;99.90;;;;;;6211055;23;19907;-82
2023/03/15 02:59:33;;;;;;;;;;;4.50;99.90;;;;;;6211553;23;19907;-84
2023/03/15 03:01:59;;;;;;;;;;;5.30;99.90;;;;;;6211830;23;19900;-83
2023/03/15 03:04:25;;;;;;;;;;;4.60;99.90;;;;;;6211653;23;19927;-84
2023/03/15 03:06:50;;;;;;;;;;;4.60;99.90;;;;;;6211785;23;19899;-83
2023/03/15 03:09:15;;;;;;;;;;;4.60;99.90;;;;;;6211681;23;19900;-83
2023/03/15 03:11:41;;;;;;;;;;;4.60;99.90;;;;;;6212644;23;19907;-83
2023/03/15 03:14:06;;;;;;;;;;;4.60;99.90;;;;;;6211051;23;20237;-83
2023/03/15 03:16:32;;;;;;;;;;;4.60;99.90;;;;;;6211761;23;19903;-82
2023/03/15 03:18:58;;;;;;;;;;;4.60;99.90;;;;;;6211402;23;19946;-83
2023/03/15 03:21:23;;;;;;;;;;;4.60;99.90;;;;;;6211681;23;20368;-83
2023/03/15 03:23:49;;;;;;;;;;;4.60;99.90;;;;;;6211386;23;20325;-84
2023/03/15 03:26:15;;;;;;;;;;;4.60;99.90;;;;;;6212194;23;19968;-84
2023/03/15 03:28:41;;;;;;;;;;;6.20;99.90;;;;;;6212235;23;19907;-85
2023/03/15 03:31:14;;;;;;;;;;;4.60;99.90;;;;;;6211561;23;19900;-82
2023/03/15 03:33:39;;;;;;;;;;;4.60;99.90;;;;;;6211682;23;19958;-84
2023/03/15 03:36:05;;;;;;;;;;;4.60;99.90;;;;;;6211140;23;20408;-84
2023/03/15 03:38:30;;;;;;;;;;;4.60;99.90;;;;;;6211477;23;19900;-85
2023/03/15 03:40:56;;;;;;;;;;;4.60;99.90;;;;;;6211584;23;19900;-83
2023/03/15 03:43:21;;;;;;;;;;;4.60;99.90;;;;;;6211404;23;19953;-82
2023/03/15 03:45:47;;;;;;;;;;;4.60;99.90;;;;;;6211757;23;19900;-82
2023/03/15 03:48:12;;;;;;;;;;;4.50;99.90;;;;;;6212493;23;19900;-83
2023/03/15 03:50:38;;;;;;;;;;;4.50;99.90;;;;;;6183742;23;20222;-82
2023/03/15 03:53:03;;;;;;;;;;;4.50;99.90;;;;;;6210984;23;19899;-83
2023/03/15 03:55:29;;;;;;;;;;;4.50;99.90;;;;;;6211271;23;19908;-82
2023/03/15 03:57:54;;;;;;;;;;;4.60;99.90;;;;;;6210874;23;19900;-81
2023/03/15 04:00:20;;;;;;;;;;;4.50;99.90;;;;;;6211504;23;19906;-83
2023/03/15 04:02:46;;;;;;;;;;;4.50;99.90;;;;;;6212554;23;19903;-82
2023/03/15 04:05:11;;;;;;;;;;;4.70;99.90;;;;;;6210845;23;19903;-82
2023/03/15 04:07:37;;;;;;;;;;;5.00;99.90;;;;;;6211085;23;20289;-82
2023/03/15 04:10:04;;;;;;;;;;;4.40;99.90;;;;;;6211119;23;19931;-81
2023/03/15 04:12:29;;;;;;;;;;;4.40;99.90;;;;;;6211759;23;19900;-83
2023/03/15 04:14:55;;;;;;;;;;;4.20;99.90;;;;;;6212149;23;19930;-84
2023/03/15 04:17:20;;;;;;;;;;;4.20;99.90;;;;;;6213057;23;19900;-84
2023/03/15 04:19:46;;;;;;;;;;;4.20;99.90;;;;;;6212218;23;19919;-83
2023/03/15 04:22:14;;;;;;;;;;;4.10;99.90;;;;;;6211128;23;19931;-84
2023/03/15 04:24:40;;;;;;;;;;;4.10;99.90;;;;;;6210889;23;19903;-83
2023/03/15 04:27:05;;;;;;;;;;;4.80;99.90;;;;;;6209655;23;19930;-85
2023/03/15 04:29:31;;;;;;;;;;;4.00;99.90;;;;;;6183649;23;19900;-84
2023/03/15 04:32:00;;;;;;;;;;;3.90;99.90;;;;;;6210781;23;20333;-83
2023/03/15 04:34:29;;;;;;;;;;;3.90;99.90;;;;;;6209897;23;20336;-83
2023/03/15 04:36:55;;;;;;;;;;;3.90;99.90;;;;;;6210253;23;19900;-84
2023/03/15 04:39:20;;;;;;;;;;;3.80;99.90;;;;;;6182187;23;19906;-84
2023/03/15 04:41:46;;;;;;;;;;;3.80;99.90;;;;;;6209994;23;19900;-83
2023/03/15 04:44:15;;;;;;;;;;;3.70;99.90;;;;;;6210713;23;19927;-83
2023/03/15 04:46:41;;;;;;;;;;;3.70;99.90;;;;;;6211281;23;20216;-83
2023/03/15 04:49:06;;;;;;;;;;;3.60;99.90;;;;;;6211135;23;19986;-83
2023/03/15 04:51:33;;;;;;;;;;;3.60;99.90;;;;;;6211100;23;19900;-83
2023/03/15 04:53:58;;;;;;;;;;;3.50;99.90;;;;;;6209998;23;19911;-83
2023/03/15 04:56:24;;;;;;;;;;;3.50;99.90;;;;;;6211590;23;20375;-85
2023/03/15 04:58:49;;;;;;;;;;;3.50;99.90;;;;;;6211721;23;19986;-86
2023/03/15 05:01:15;;;;;;;;;;;3.60;99.90;;;;;;6211122;23;20426;-84
2023/03/15 05:03:40;;;;;;;;;;;3.40;99.90;;;;;;6210529;23;20082;-85
2023/03/15 05:06:09;;;;;;;;;;;3.40;99.90;;;;;;6184506;23;19900;-87
2023/03/15 05:08:35;;;;;;;;;;;3.30;99.90;;;;;;6184344;23;19899;-86
2023/03/15 05:11:01;;;;;;;;;;;3.40;99.90;;;;;;6211100;23;19923;-87
2023/03/15 05:13:27;;;;;;;;;;;3.20;99.90;;;;;;6185071;23;19956;-86
2023/03/15 05:15:52;;;;;;;;;;;3.40;99.90;;;;;;6211623;23;19911;-88
2023/03/15 05:18:18;;;;;;;;;;;3.30;99.90;;;;;;6212252;23;19954;-87
2023/03/15 05:20:43;;;;;;;;;;;3.50;99.90;;;;;;6210555;23;19907;-86
2023/03/15 05:23:09;;;;;;;;;;;4.20;99.90;;;;;;6210771;23;19900;-86
2023/03/15 05:25:35;;;;;;;;;;;4.50;99.90;;;;;;6210749;23;19900;-85
2023/03/15 05:28:03;;;;;;;;;;;3.10;99.90;;;;;;6183643;23;19900;-86
2023/03/15 05:30:29;;;;;;;;;;;3.20;99.90;;;;;;6184733;23;19899;-86
2023/03/15 05:32:55;;;;;;;;;;;3.10;99.90;;;;;;6211255;23;19980;-86
2023/03/15 05:35:23;;;;;;;;;;;3.00;99.90;;;;;;6179850;23;19943;-86
2023/03/15 05:37:48;;;;;;;;;;;3.20;99.90;;;;;;6215992;23;19947;-86
2023/03/15 05:40:14;;;;;;;;;;;3.20;99.90;;;;;;6211426;23;19900;-88
2023/03/15 05:42:40;;;;;;;;;;;3.00;99.90;;;;;;6210141;23;19904;-88
2023/03/15 05:45:06;;;;;;;;;;;3.20;99.90;;;;;;6184171;23;20112;-87
2023/03/15 05:47:31;;;;;;;;;;;3.10;99.90;;;;;;6183909;23;20313;-90
2023/03/15 05:49:57;;;;;;;;;;;3.10;99.90;;;;;;6210879;23;19900;-87
2023/03/15 05:52:23;;;;;;;;;;;2.90;99.90;;;;;;6212735;23;19900;-86
2023/03/15 05:54:48;;;;;;;;;;;3.10;99.90;;;;;;6213488;23;19908;-88
2023/03/15 05:57:14;;;;;;;;;;;3.10;99.90;;;;;;6213732;23;20241;-88
2023/03/15 05:59:39;;;;;;;;;;;2.80;99.90;;;;;;6186520;23;20229;-85
2023/03/15 06:02:05;;;;;;;;;;;3.00;99.90;;;;;;6211852;23;20288;-87
2023/03/15 06:04:31;;;;;;;;;;;3.10;99.90;;;;;;6213980;23;19990;-89
2023/03/15 06:06:56;;;;;;;;;;;3.00;99.90;;;;;;6213853;23;19900;-88
2023/03/15 06:09:22;;;;;;;;;;;2.90;99.90;;;;;;6215284;23;19979;-87
2023/03/15 06:11:47;;;;;;;;;;;2.80;99.90;;;;;;6214678;23;20391;-85
2023/03/15 06:14:13;;;;;;;;;;;3.00;99.90;;;;;;6216525;23;20258;-85
2023/03/15 06:16:38;;;;;;;;;;;5.60;99.90;;;;;;6219780;23;19900;-85
2023/03/15 06:19:04;;;;;;;;;;;2.80;99.90;;;;;;6194724;23;19911;-85
2023/03/15 06:21:32;;;;;;;;;;;2.20;99.90;;;;;;6223183;23;19900;-85
2023/03/15 06:23:58;;;;;;;;;;;2.70;99.90;;;;;;6222947;23;19932;-85
2023/03/15 06:26:25;;;;;;;;;;;2.70;99.90;;;;;;6218714;23;19900;-85
2023/03/15 06:28:50;;;;;;;;;;;3.00;99.90;;;;;;6189580;23;19907;-85
2023/03/15 06:31:16;;;;;;;;;;;4.20;99.90;;;;;;6217987;23;19904;-85
2023/03/15 06:33:43;;;;;;;;;;;5.00;99.90;;;;;;6218426;23;19904;-85
2023/03/15 06:36:10;;;;;;;;;;;3.10;99.90;;;;;;6218205;23;19900;-85
2023/03/15 06:38:35;;;;;;;;;;;3.10;99.90;;;;;;6217654;23;19900;-85
2023/03/15 06:41:03;;;;;;;;;;;2.90;99.90;;;;;;6193974;23;19931;-85
2023/03/15 06:43:29;;;;;;;;;;;2.90;99.90;;;;;;6192605;23;19900;-85
2023/03/15 06:45:57;;;;;;;;;;;4.70;99.90;;;;;;6221631;23;19960;-85
2023/03/15 06:48:23;;;;;;;;;;;4.40;99.90;;;;;;6219183;23;19907;-85
2023/03/15 06:50:48;;;;;;;;;;;3.40;99.90;;;;;;6217894;23;19900;-85
2023/03/15 06:53:14;;;;;;;;;;;6.60;99.90;;;;;;6193030;23;19966;-86
2023/03/15 06:55:40;;;;;;;;;;;3.30;99.90;;;;;;6217958;23;19908;-85
2023/03/15 06:58:05;;;;;;;;;;;3.50;99.90;;;;;;6218422;23;19903;-85
2023/03/15 07:00:31;;;;;;;;;;;3.50;99.90;;;;;;6191391;23;19900;-84
2023/03/15 07:02:56;;;;;;;;;;;4.30;99.90;;;;;;6218370;23;19978;-85
2023/03/15 07:05:22;;;;;;;;;;;3.60;99.90;;;;;;6218277;23;19900;-85
2023/03/15 07:07:47;;;;;;;;;;;5.20;99.90;;;;;;6218399;23;19900;-85
2023/03/15 07:10:13;;;;;;;;;;;6.60;99.90;;;;;;6217138;23;20233;-85
2023/03/15 07:12:38;;;;;;;;;;;5.30;99.90;;;;;;6218796;23;20340;-85
2023/03/15 07:15:04;;;;;;;;;;;3.60;99.90;;;;;;6217568;23;19907;-85
2023/03/15 07:17:30;;;;;;;;;;;3.80;99.90;;;;;;6191049;23;19899;-85
2023/03/15 07:19:55;;;;;;;;;;;4.10;99.90;;;;;;6220474;23;20318;-85
2023/03/15 07:22:22;;;;;;;;;;;3.80;99.90;;;;;;6220907;23;19906;-85
2023/03/15 07:24:47;;;;;;;;;;;3.90;99.90;;;;;;6217369;23;19911;-85
2023/03/15 07:27:13;;;;;;;;;;;3.80;99.90;;;;;;6215538;23;19900;-85
2023/03/15 07:29:39;;;;;;;;;;;4.10;99.90;;;;;;6216309;23;19900;-85
2023/03/15 07:32:06;;;;;;;;;;;6.00;99.90;;;;;;6189056;23;19900;-85
2023/03/15 07:34:32;;;;;;;;;;;4.40;99.90;;;;;;6216075;23;19909;-85
2023/03/15 07:36:57;;;;;;;;;;;4.50;99.90;;;;;;6190846;23;19907;-85
2023/03/15 07:39:25;;;;;;;;;;;4.60;99.90;;;;;;6190076;23;19906;-85
2023/03/15 07:41:53;;;;;;;;;;;5.10;99.90;;;;;;6220936;23;19907;-85
2023/03/15 07:44:19;;;;;;;;;;;4.80;99.90;;;;;;6215024;23;20136;-85
2023/03/15 07:46:45;;;;;;;;;;;4.90;99.90;;;;;;6187488;23;19900;-85
2023/03/15 07:49:11;;;;;;;;;;;5.30;99.90;;;;;;6215226;23;19927;-85
2023/03/15 07:51:36;;;;;;;;;;;6.10;99.90;;;;;;6214291;23;19955;-85
2023/03/15 07:54:02;;;;;;;;;;;7.70;99.90;;;;;;6191283;23;19908;-86
2023/03/15 07:56:28;;;;;;;;;;;5.20;99.90;;;;;;6217975;23;19899;-85
2023/03/15 07:58:53;;;;;;;;;;;7.40;99.90;;;;;;6216803;23;19907;-85
2023/03/15 08:01:19;;;;;;;;;;;5.30;99.90;;;;;;6215426;23;19900;-85
2023/03/15 08:03:44;;;;;;;;;;;7.80;99.90;;;;;;6213236;23;19900;-85
2023/03/15 08:06:10;;;;;;;;;;;7.20;99.90;;;;;;6213700;23;20336;-86
2023/03/15 08:08:35;;;;;;;;;;;5.40;99.90;;;;;;6213735;23;19900;-86
2023/03/15 08:11:04;;;;;;;;;;;5.60;99.90;;;;;;6187074;23;19899;-85
2023/03/15 08:13:30;;;;;;;;;;;5.80;99.90;;;;;;6214149;23;19942;-85
2023/03/15 08:15:56;;;;;;;;;;;5.90;99.90;;;;;;6214061;23;19904;-85
2023/03/15 08:18:21;;;;;;;;;;;5.70;99.90;;;;;;6212940;23;20236;-86
2023/03/15 08:20:47;;;;;;;;;;;6.90;99.90;;;;;;6185706;23;19915;-86
2023/03/15 08:23:15;;;;;;;;;;;6.70;99.90;;;;;;6213232;23;19927;-90
2023/03/15 08:25:41;;;;;;;;;;;8.10;99.90;;;;;;6183882;23;19900;-85
2023/03/15 08:28:07;;;;;;;;;;;6.40;99.90;;;;;;6211229;23;19950;-85
2023/03/15 08:30:32;;;;;;;;;;;6.40;99.90;;;;;;6211199;23;19900;-83
2023/03/15 08:32:58;;;;;;;;;;;8.60;99.90;;;;;;6212013;23;19900;-86
2023/03/15 08:35:23;;;;;;;;;;;7.70;99.90;;;;;;6211544;23;19907;-86
2023/03/15 08:37:51;;;;;;;;;;;7.30;99.90;;;;;;6183369;23;19991;-85
2023/03/15 08:40:22;;;;;;;;;;;7.10;99.90;;;;;;6183860;23;19931;-87
2023/03/15 08:42:48;;;;;;;;;;;6.90;99.90;;;;;;6209359;23;19899;-84
2023/03/15 08:45:14;;;;;;;;;;;7.20;99.90;;;;;;6210251;23;20612;-87
2023/03/15 08:47:40;;;;;;;;;;;7.40;99.90;;;;;;6210967;23;19904;-85
2023/03/15 08:50:14;;;;;;;;;;;7.50;99.90;;;;;;6184199;23;20436;-83
2023/03/15 08:52:40;;;;;;;;;;;7.60;99.90;;;;;;6209729;23;20284;-84
2023/03/15 08:55:05;;;;;;;;;;;7.70;99.90;;;;;;6184210;23;19907;-86
2023/03/15 08:57:32;;;;;;;;;;;7.80;99.90;;;;;;6211892;23;19904;-86
2023/03/15 08:59:58;;;;;;;;;;;7.90;99.90;;;;;;6210974;23;19931;-88
2023/03/15 09:02:24;;;;;;;;;;;8.40;99.90;;;;;;6211057;23;20321;-87
2023/03/15 09:04:50;;;;;;;;;;;8.70;99.90;;;;;;6214678;23;19915;-89
2023/03/15 09:07:15;;;;;;;;;;;8.20;99.90;;;;;;6187640;23;20222;-87
2023/03/15 09:09:47;;;;;;;;;;;7.90;99.90;;;;;;6211334;23;19926;-89
2023/03/15 09:12:13;;;;;;;;;;;8.00;99.90;;;;;;6211894;23;19975;-86
2023/03/15 09:14:39;;;;;;;;;;;8.10;99.90;;;;;;6211792;23;19912;-92
2023/03/15 09:17:04;;;;;;;;;;;8.80;99.90;;;;;;6185331;23;20386;-86
2023/03/15 09:19:31;;;;;;;;;;;8.30;99.90;;;;;;6212803;23;19915;-90
2023/03/15 09:21:56;;;;;;;;;;;8.40;99.90;;;;;;6211800;23;19904;-87
2023/03/15 09:24:22;;;;;;;;;;;8.40;99.90;;;;;;6211352;23;19947;-88
2023/03/15 09:26:47;;;;;;;;;;;8.50;99.90;;;;;;6211644;23;19900;-89
2023/03/15 09:29:13;;;;;;;;;;;8.70;99.90;;;;;;6212957;23;19900;-86
2023/03/15 09:31:38;;;;;;;;;;;8.90;99.90;;;;;;6212923;23;20218;-88
2023/03/15 09:34:04;;;;;;;;;;;8.90;99.90;;;;;;6215806;23;19962;-86
2023/03/15 09:36:30;;;;;;;;;;;9.30;99.90;;;;;;6214586;23;19907;-89
2023/03/15 09:38:56;;;;;;;;;;;9.20;99.90;;;;;;6215589;23;20287;-86
2023/03/15 09:41:28;;;;;;;;;;;9.30;99.90;;;;;;6186829;23;19900;-87
2023/03/15 09:44:15;;;;;;;;;;;9.40;99.90;;;;;;6212560;23;19900;-86
2023/03/15 09:46:43;;;;;;;;;;;9.50;99.90;;;;;;6213340;23;19900;-85
2023/03/15 09:49:24;;;;;;;;;;;9.60;99.90;;;;;;6185560;23;19903;-86
2023/03/15 09:51:53;;;;;;;;;;;9.70;99.90;;;;;;6212015;23;19900;-86
2023/03/15 09:54:47;;;;;;;;;;;9.70;99.90;;;;;;6187226;23;19916;-85
2023/03/15 09:57:15;;;;;;;;;;;9.80;99.90;;;;;;6058964;23;19921;-85
2023/03/15 09:59:44;;;;;;;;;;;9.90;99.90;;;;;;6216728;23;19900;-86
2023/03/15 10:02:23;;;;;;;;;;;10.10;99.90;;;;;;6215777;23;19954;-85
2023/03/15 10:04:52;;;;;;;;;;;10.20;99.90;;;;;;6215771;23;19927;-85
2023/03/15 10:07:17;;;;;;;;;;;10.40;99.90;;;;;;6214018;23;19912;-85
2023/03/15 10:09:44;;;;;;;;;;;10.60;99.90;;;;;;6214208;23;20365;-85
2023/03/15 10:12:09;;;;;;;;;;;10.70;99.90;;;;;;6215521;23;20006;-85
2023/03/15 10:14:58;;;;;;;;;;;10.90;99.90;;;;;;6213732;23;19923;-87
2023/03/15 10:17:36;;;;;;;;;;;11.10;99.90;;;;;;6194218;23;19939;-85
2023/03/15 10:20:22;;;;;;;;;;;11.10;99.90;;;;;;6212602;23;19986;-85
2023/03/15 10:22:53;;;;;;;;;;;11.10;99.90;;;;;;6212285;23;20322;-86
2023/03/15 10:25:23;;;;;;;;;;;11.20;99.90;;;;;;6212517;23;19900;-85
2023/03/15 10:27:51;;;;;;;;;;;11.40;99.90;;;;;;6212981;23;19900;-85
2023/03/15 10:30:21;;;;;;;;;;;11.30;99.90;;;;;;6212849;23;19903;-85
2023/03/15 10:33:01;;;;;;;;;;;11.40;99.90;;;;;;6212557;23;19904;-85
2023/03/15 10:35:27;;;;;;;;;;;11.30;99.90;;;;;;6212221;23;19912;-85
2023/03/15 10:37:52;;;;;;;;;;;11.20;99.90;;;;;;6212323;23;19907;-85
2023/03/15 10:40:36;;;;;;;;;;;11.10;99.90;;;;;;6212323;23;19954;-86
2023/03/15 10:43:10;;;;;;;;;;;11.00;99.90;;;;;;6212207;23;20249;-86
2023/03/15 10:45:37;;;;;;;;;;;11.10;99.90;;;;;;6213569;23;20310;-86
2023/03/15 10:48:02;;;;;;;;;;;11.10;99.90;;;;;;6212099;23;19927;-86
2023/03/15 10:50:30;;;;;;;;;;;11.20;99.90;;;;;;6185335;23;20196;-86
2023/03/15 10:52:57;;;;;;;;;;;11.40;99.90;;;;;;6185606;23;19904;-86
2023/03/15 10:55:44;;;;;;;;;;;11.40;99.90;;;;;;6212076;23;19950;-86
2023/03/15 10:58:32;;;;;;;;;;;11.50;99.90;;;;;;6186095;23;19979;-85
2023/03/15 11:00:59;;;;;;;;;;;11.30;99.90;;;;;;6185810;23;19987;-87
2023/03/15 11:03:25;;;;;;;;;;;11.30;99.90;;;;;;6212182;23;19900;-88
2023/03/15 11:05:52;;;;;;;;;;;11.40;99.90;;;;;;6212193;23;20348;-86
2023/03/15 11:08:34;;;;;;;;;;;11.60;99.90;;;;;;6211784;23;20293;-86
2023/03/15 11:10:59;;;;;;;;;;;11.70;99.90;;;;;;6185145;23;20327;-86
2023/03/15 11:13:32;;;;;;;;;;;11.90;99.90;;;;;;6212143;23;19931;-85
2023/03/15 11:16:03;;;;;;;;;;;12.00;99.90;;;;;;6211998;23;19907;-85
2023/03/15 11:18:37;;;;;;;;;;;11.90;99.90;;;;;;6212305;23;19904;-85
2023/03/15 11:21:08;;;;;;;;;;;11.90;99.90;;;;;;6213188;23;19939;-86
2023/03/15 11:23:36;;;;;;;;;;;11.80;99.90;;;;;;6185361;23;19904;-86
2023/03/15 11:26:02;;;;;;;;;;;11.90;99.90;;;;;;6211919;23;19919;-87
2023/03/15 11:28:29;;;;;;;;;;;12.00;99.90;;;;;;6212215;23;19974;-88
2023/03/15 11:30:56;;;;;;;;;;;12.10;99.90;;;;;;6211849;23;19904;-86
2023/03/15 11:33:32;;;;;;;;;;;12.00;99.90;;;;;;6212002;23;19931;-87
2023/03/15 11:35:59;;;;;;;;;;;12.10;99.90;;;;;;6212108;23;19990;-86
2023/03/15 11:38:32;;;;;;;;;;;12.20;99.90;;;;;;6185060;23;20249;-86
2023/03/15 11:40:58;;;;;;;;;;;12.30;99.90;;;;;;6212451;23;19950;-85
2023/03/15 11:43:26;;;;;;;;;;;12.30;99.90;;;;;;6212080;23;19970;-87
2023/03/15 11:46:07;;;;;;;;;;;12.40;99.90;;;;;;6211861;23;19900;-86
2023/03/15 11:48:35;;;;;;;;;;;12.60;99.90;;;;;;6211683;23;20343;-88
2023/03/15 11:51:01;;;;;;;;;;;12.70;99.90;;;;;;6185394;23;19950;-87
2023/03/15 11:53:32;;;;;;;;;;;12.50;99.90;;;;;;6211652;23;19903;-86
2023/03/15 11:56:02;;;;;;;;;;;12.70;99.90;;;;;;6211421;23;19915;-87
2023/03/15 11:58:27;;;;;;;;;;;12.80;99.90;;;;;;6212011;23;19929;-88
2023/03/15 12:00:54;;;;;;;;;;;12.90;99.90;;;;;;6211835;23;19978;-86
2023/03/15 12:03:35;;;;;;;;;;;13.00;99.90;;;;;;6211531;23;19899;-88
2023/03/15 12:06:03;;;;;;;;;;;13.10;99.90;;;;;;6185060;23;20006;-87
2023/03/15 12:08:33;;;;;;;;;;;13.20;99.90;;;;;;6211739;23;19900;-88
2023/03/15 12:10:59;;;;;;;;;;;13.20;99.90;;;;;;6184522;23;19900;-86
2023/03/15 12:13:29;;;;;;;;;;;13.20;99.90;;;;;;6211474;23;19931;-89
2023/03/15 12:15:55;;;;;;;;;;;13.20;99.90;;;;;;6185590;23;20232;-87
2023/03/15 12:18:30;;;;;;;;;;;13.20;99.90;;;;;;6184957;23;19982;-86
2023/03/15 12:21:04;;;;;;;;;;;13.20;99.90;;;;;;6211262;23;19907;-87
2023/03/15 12:23:34;;;;;;;;;;;13.20;99.90;;;;;;6211578;23;19904;-89
2023/03/15 12:26:02;;;;;;;;;;;13.20;99.90;;;;;;6210974;23;19900;-86
2023/03/15 12:28:40;;;;;;;;;;;13.30;99.90;;;;;;6211576;23;19935;-87
2023/03/15 12:31:07;;;;;;;;;;;13.50;99.90;;;;;;6185373;23;19910;-87
2023/03/15 12:33:43;;;;;;;;;;;13.50;99.90;;;;;;6185026;23;19978;-87
2023/03/15 12:36:13;;;;;;;;;;;13.50;99.90;;;;;;6184772;23;20353;-86
2023/03/15 12:38:42;;;;;;;;;;;13.50;99.90;;;;;;6211417;23;19900;-88
2023/03/15 12:41:08;;;;;;;;;;;13.50;99.90;;;;;;6211157;23;19908;-87
2023/03/15 12:43:37;;;;;;;;;;;13.50;99.90;;;;;;6211671;23;19900;-88
2023/03/15 12:46:03;;;;;;;;;;;13.40;99.90;;;;;;6213147;23;19900;-86
2023/03/15 12:48:29;;;;;;;;;;;13.40;99.90;;;;;;6217084;23;20248;-87
2023/03/15 12:50:56;;;;;;;;;;;13.50;99.90;;;;;;6193770;23;19922;-87
2023/03/15 12:53:35;;;;;;;;;;;13.60;99.90;;;;;;6198147;23;19906;-87
2023/03/15 12:56:21;;;;;;;;;;;13.80;99.90;;;;;;6186370;23;19982;-87
2023/03/15 12:58:50;;;;;;;;;;;14.00;99.90;;;;;;6185958;23;19904;-88
2023/03/15 13:01:16;;;;;;;;;;;14.10;99.90;;;;;;6211422;23;19899;-88
2023/03/15 13:03:42;;;;;;;;;;;14.00;99.90;;;;;;6210324;23;19982;-90
2023/03/15 13:06:26;;;;;;;;;;;14.00;99.90;;;;;;6210364;23;19981;-87
2023/03/15 13:08:57;;;;;;;;;;;14.00;99.90;;;;;;6210334;23;19899;-86
2023/03/15 13:11:26;;;;;;;;;;;14.10;99.90;;;;;;6210120;23;19989;-86
2023/03/15 13:13:55;;;;;;;;;;;14.10;99.90;;;;;;6210249;23;19908;-86
2023/03/15 13:16:25;;;;;;;;;;;14.10;99.90;;;;;;6210180;23;19904;-87
2023/03/15 13:19:09;;;;;;;;;;;14.10;99.90;;;;;;6184029;23;20280;-88
2023/03/15 13:21:36;;;;;;;;;;;14.20;99.90;;;;;;6210378;23;19955;-87
2023/03/15 13:24:03;;;;;;;;;;;14.40;99.90;;;;;;6209631;23;19953;-88
2023/03/15 13:27:01;;;;;;;;;;;14.40;99.90;;;;;;6182327;23;19954;-89
2023/03/15 13:29:31;;;;;;;;;;;14.50;99.90;;;;;;6103870;23;19904;-90
2023/03/15 13:32:12;;;;;;;;;;;14.50;99.90;;;;;;6183688;23;19899;-88
2023/03/15 13:34:38;;;;;;;;;;;14.50;99.90;;;;;;6210040;23;19907;-87
2023/03/15 13:37:11;;;;;;;;;;;14.40;99.90;;;;;;6210911;23;19986;-86
2023/03/15 13:39:36;;;;;;;;;;;14.40;99.90;;;;;;6211560;23;19982;-87
2023/03/15 13:42:06;;;;;;;;;;;14.40;99.90;;;;;;6211636;23;19900;-86
2023/03/15 13:44:32;;;;;;;;;;;14.40;99.90;;;;;;6212523;23;19900;-86
2023/03/15 13:46:57;;;;;;;;;;;14.30;99.90;;;;;;6212623;23;20284;-87
2023/03/15 13:52:26;;;;;;;;;;;14.30;99.90;;;;;;6210947;23;19907;-87
2023/03/15 13:54:52;;;;;;;;;;;14.30;99.90;;;;;;6185043;23;19912;-87
2023/03/15 13:57:20;;;;;;;;;;;14.40;99.90;;;;;;6213263;23;19904;-87
2023/03/15 13:59:49;;;;;;;;;;;14.40;99.90;;;;;;6212529;23;19942;-87
2023/03/15 14:02:19;;;;;;;;;;;14.40;99.90;;;;;;6187139;23;19900;-87
2023/03/15 14:04:49;;;;;;;;;;;14.20;99.90;;;;;;6212180;23;19900;-86
2023/03/15 14:07:27;;;;;;;;;;;14.10;99.90;;;;;;6186253;23;20272;-86
2023/03/15 14:10:19;;;;;;;;;;;14.20;99.90;;;;;;6211404;23;20317;-87
2023/03/15 14:12:45;;;;;;;;;;;14.30;99.90;;;;;;6212130;23;19899;-87
2023/03/15 14:15:17;;;;;;;;;;;14.40;99.90;;;;;;6185808;23;19914;-87
2023/03/15 14:17:52;;;;;;;;;;;14.40;99.90;;;;;;6213236;23;19975;-87
2023/03/15 14:20:23;;;;;;;;;;;14.30;99.90;;;;;;6213824;23;19908;-89
2023/03/15 14:22:49;;;;;;;;;;;14.30;99.90;;;;;;6215348;23;19907;-86
2023/03/15 14:25:20;;;;;;;;;;;11.10;99.90;;;;;;6192419;23;19927;-90
2023/03/15 14:27:45;;;;;;;;;;;14.10;99.90;;;;;;6192059;23;19931;-90
2023/03/15 14:30:22;;;;;;;;;;;14.10;99.90;;;;;;6189538;23;19900;-90
2023/03/15 14:32:52;;;;;;;;;;;14.10;99.90;;;;;;6192355;23;19904;-89